Time;durP1;ratioP1;P1;durP2;ratioP2;P2;SDS_P1;SDS_P2;PMS_P1;PMS_P2;Temp;Humidity;BMP_temperature;BMP_pressure;BME280_temperature;BME280_humidity;BME280_pressure;Samples;Min_cycle;Max_cycle;Signal;HPM_P1;HPM_P2
2023/09/04 00:01:57;;;;;;;6.63;4.35;;;;;;;;;;5043178;28;20049;-64
2023/09/04 00:04:23;;;;;;;5.93;3.55;;;;;;;;;;5047000;28;20061;-63
2023/09/04 00:06:50;;;;;;;5.68;3.83;;;;;;;;;;5043825;28;20043;-63
2023/09/04 00:09:17;;;;;;;5.93;3.67;;;;;;;;;;5047027;28;20486;-64
2023/09/04 00:11:44;;;;;;;5.50;3.53;;;;;;;;;;5045564;28;20474;-63
2023/09/04 00:14:11;;;;;;;5.00;3.67;;;;;;;;;;5047456;28;20490;-64
2023/09/04 00:16:39;;;;;;;6.85;3.92;;;;;;;;;;5047016;28;20049;-63
2023/09/04 00:19:07;;;;;;;5.78;3.90;;;;;;;;;;5046580;28;20091;-63
2023/09/04 00:21:33;;;;;;;5.88;3.78;;;;;;;;;;5046541;28;20486;-63
2023/09/04 00:24:00;;;;;;;5.85;4.13;;;;;;;;;;5047305;28;20489;-63
2023/09/04 00:26:26;;;;;;;6.43;4.07;;;;;;;;;;5047578;28;20410;-63
2023/09/04 00:28:53;;;;;;;6.65;4.60;;;;;;;;;;5047748;28;20040;-63
2023/09/04 00:31:20;;;;;;;6.50;4.00;;;;;;;;;;5044475;28;20314;-63
2023/09/04 00:33:46;;;;;;;5.28;3.88;;;;;;;;;;5047343;28;20037;-63
2023/09/04 00:36:14;;;;;;;5.90;4.30;;;;;;;;;;5045032;28;20296;-63
2023/09/04 00:38:41;;;;;;;6.25;4.43;;;;;;;;;;5046159;28;20076;-63
2023/09/04 00:41:07;;;;;;;5.95;4.50;;;;;;;;;;5046679;28;20049;-63
2023/09/04 00:43:37;;;;;;;6.55;4.05;;;;;;;;;;5047344;28;20063;-63
2023/09/04 00:46:04;;;;;;;5.35;3.78;;;;;;;;;;5046449;28;20056;-63
2023/09/04 00:48:33;;;;;;;5.72;4.32;;;;;;;;;;5047213;28;20051;-63
2023/09/04 00:51:01;;;;;;;5.50;4.30;;;;;;;;;;5047183;28;20041;-63
2023/09/04 00:53:30;;;;;;;7.20;4.03;;;;;;;;;;5047240;28;20052;-63
2023/09/04 00:55:58;;;;;;;6.82;4.07;;;;;;;;;;5047207;28;20099;-63
2023/09/04 00:58:24;;;;;;;6.38;4.57;;;;;;;;;;5046894;28;20076;-63
2023/09/04 01:00:51;;;;;;;7.55;4.55;;;;;;;;;;5050493;28;20041;-63
2023/09/04 01:03:19;;;;;;;6.78;4.10;;;;;;;;;;5050512;28;20049;-63
2023/09/04 01:05:46;;;;;;;6.25;4.30;;;;;;;;;;5051215;28;20041;-63
2023/09/04 01:08:14;;;;;;;6.45;3.95;;;;;;;;;;5049855;28;20094;-63
2023/09/04 01:10:49;;;;;;;5.70;3.83;;;;;;;;;;5050782;28;20041;-64
2023/09/04 01:13:22;;;;;;;5.68;3.95;;;;;;;;;;5050898;28;20040;-63
2023/09/04 01:15:49;;;;;;;5.97;3.88;;;;;;;;;;5050890;28;20532;-63
2023/09/04 01:18:16;;;;;;;5.90;3.95;;;;;;;;;;5050371;28;20128;-63
2023/09/04 01:20:44;;;;;;;5.40;4.03;;;;;;;;;;5049767;28;20049;-63
2023/09/04 01:23:11;;;;;;;6.03;4.13;;;;;;;;;;5050555;28;20083;-63
2023/09/04 01:25:44;;;;;;;5.18;3.67;;;;;;;;;;5050396;28;20435;-63
2023/09/04 01:28:19;;;;;;;5.50;3.78;;;;;;;;;;5050153;28;20264;-63
2023/09/04 01:30:55;;;;;;;5.75;3.53;;;;;;;;;;5048325;28;20689;-63
2023/09/04 01:33:29;;;;;;;5.22;4.00;;;;;;;;;;5048237;28;20060;-63
2023/09/04 01:35:59;;;;;;;6.63;3.70;;;;;;;;;;5049608;28;20051;-63
2023/09/04 01:38:27;;;;;;;5.03;3.33;;;;;;;;;;5047589;28;20098;-63
2023/09/04 01:40:54;;;;;;;5.07;3.47;;;;;;;;;;5049854;28;20124;-63
2023/09/04 01:43:20;;;;;;;6.95;4.35;;;;;;;;;;5046614;28;20053;-63
2023/09/04 01:45:47;;;;;;;7.35;5.18;;;;;;;;;;5046621;28;20049;-63
2023/09/04 01:48:14;;;;;;;5.25;3.97;;;;;;;;;;5049958;28;20059;-63
2023/09/04 01:50:40;;;;;;;6.38;3.67;;;;;;;;;;5049297;28;20043;-63
2023/09/04 01:53:08;;;;;;;7.22;4.57;;;;;;;;;;5048116;28;20041;-63
2023/09/04 01:55:36;;;;;;;6.57;4.07;;;;;;;;;;5045571;28;20041;-63
2023/09/04 01:58:02;;;;;;;7.90;4.85;;;;;;;;;;5048738;28;20140;-63
2023/09/04 02:00:29;;;;;;;7.97;5.43;;;;;;;;;;5046581;28;20045;-63
2023/09/04 02:02:56;;;;;;;6.95;4.40;;;;;;;;;;5050207;28;20565;-63
2023/09/04 02:05:23;;;;;;;5.18;3.88;;;;;;;;;;5049709;28;20044;-63
2023/09/04 02:07:49;;;;;;;5.65;4.40;;;;;;;;;;5050028;28;20049;-63
2023/09/04 02:10:17;;;;;;;7.45;5.35;;;;;;;;;;5048049;28;20056;-63
2023/09/04 02:12:44;;;;;;;6.55;4.68;;;;;;;;;;5046065;28;20049;-63
2023/09/04 02:15:11;;;;;;;7.45;4.85;;;;;;;;;;5050077;28;20518;-63
2023/09/04 02:17:38;;;;;;;6.65;4.38;;;;;;;;;;5045220;28;20482;-63
2023/09/04 02:20:06;;;;;;;6.72;4.10;;;;;;;;;;5049092;28;20399;-63
2023/09/04 02:22:33;;;;;;;6.00;4.35;;;;;;;;;;5050140;28;20151;-64
2023/09/04 02:24:59;;;;;;;7.60;5.03;;;;;;;;;;5049527;28;20079;-64
2023/09/04 02:27:27;;;;;;;7.85;5.38;;;;;;;;;;5043720;28;20048;-64
2023/09/04 02:29:54;;;;;;;6.50;4.68;;;;;;;;;;5049418;28;20678;-64
2023/09/04 02:32:21;;;;;;;6.47;4.78;;;;;;;;;;5045288;28;20049;-64
2023/09/04 02:34:47;;;;;;;6.18;4.20;;;;;;;;;;5049496;28;20044;-64
2023/09/04 02:37:14;;;;;;;7.50;4.75;;;;;;;;;;5047532;28;20049;-64
2023/09/04 02:39:41;;;;;;;6.20;4.40;;;;;;;;;;5049472;28;20045;-64
2023/09/04 02:42:07;;;;;;;6.47;4.93;;;;;;;;;;5045881;28;20436;-64
2023/09/04 02:44:35;;;;;;;7.32;4.65;;;;;;;;;;5049656;28;20045;-64
2023/09/04 02:47:02;;;;;;;7.45;4.95;;;;;;;;;;5048865;28;20045;-64
2023/09/04 02:49:28;;;;;;;7.22;4.97;;;;;;;;;;5046599;28;20041;-64
2023/09/04 02:51:55;;;;;;;5.57;4.38;;;;;;;;;;5048105;28;20041;-64
2023/09/04 02:54:22;;;;;;;6.53;4.65;;;;;;;;;;5043270;28;20041;-64
2023/09/04 02:56:48;;;;;;;6.22;4.47;;;;;;;;;;5048824;28;20047;-64
2023/09/04 02:59:15;;;;;;;5.43;4.10;;;;;;;;;;5046864;28;20049;-64
2023/09/04 03:01:43;;;;;;;7.72;4.70;;;;;;;;;;5047928;28;20045;-64
2023/09/04 03:04:09;;;;;;;7.13;5.05;;;;;;;;;;5047981;28;20076;-64
2023/09/04 03:06:38;;;;;;;6.63;5.18;;;;;;;;;;5044807;28;20045;-63
2023/09/04 03:09:05;;;;;;;6.05;4.40;;;;;;;;;;5047228;28;20138;-64
2023/09/04 03:11:32;;;;;;;6.32;4.15;;;;;;;;;;5044474;28;20052;-63
2023/09/04 03:13:58;;;;;;;6.22;4.57;;;;;;;;;;5047594;28;20043;-63
2023/09/04 03:16:27;;;;;;;6.20;4.50;;;;;;;;;;5047498;28;20570;-64
2023/09/04 03:18:55;;;;;;;6.18;4.63;;;;;;;;;;5045197;28;20081;-64
2023/09/04 03:21:21;;;;;;;5.82;4.43;;;;;;;;;;5047007;28;20041;-64
2023/09/04 03:23:51;;;;;;;6.25;4.65;;;;;;;;;;5045492;28;20036;-64
2023/09/04 03:26:17;;;;;;;7.32;4.82;;;;;;;;;;5047907;28;20045;-64
2023/09/04 03:28:44;;;;;;;6.45;5.00;;;;;;;;;;5047022;28;20047;-63
2023/09/04 03:31:13;;;;;;;7.22;5.00;;;;;;;;;;5048379;28;20056;-64
2023/09/04 03:33:40;;;;;;;6.63;4.30;;;;;;;;;;5048800;28;20052;-64
2023/09/04 03:36:09;;;;;;;6.65;5.10;;;;;;;;;;5047944;28;20051;-64
2023/09/04 03:38:36;;;;;;;6.88;5.03;;;;;;;;;;5047704;28;20036;-63
2023/09/04 03:41:02;;;;;;;7.07;5.15;;;;;;;;;;5045772;28;20490;-63
2023/09/04 03:43:29;;;;;;;6.93;5.35;;;;;;;;;;5042253;28;20044;-63
2023/09/04 03:45:56;;;;;;;6.60;4.93;;;;;;;;;;5046907;28;20190;-64
2023/09/04 03:48:23;;;;;;;7.07;4.72;;;;;;;;;;5046745;28;20550;-64
2023/09/04 03:50:49;;;;;;;6.07;4.97;;;;;;;;;;5048178;28;20055;-64
2023/09/04 03:53:17;;;;;;;6.53;4.93;;;;;;;;;;5045932;28;20048;-64
2023/09/04 03:55:44;;;;;;;6.35;4.78;;;;;;;;;;5048405;28;20045;-64
2023/09/04 03:58:10;;;;;;;6.50;5.13;;;;;;;;;;5048082;28;20520;-63
2023/09/04 04:00:37;;;;;;;8.25;4.82;;;;;;;;;;5047927;28;20045;-63
2023/09/04 04:03:04;;;;;;;9.20;5.22;;;;;;;;;;5048435;28;20474;-63
2023/09/04 04:05:31;;;;;;;8.25;5.65;;;;;;;;;;5045873;28;20045;-63
2023/09/04 04:07:57;;;;;;;7.18;5.60;;;;;;;;;;5047871;28;20279;-63
2023/09/04 04:10:25;;;;;;;9.15;5.15;;;;;;;;;;5047926;28;20037;-63
2023/09/04 04:12:53;;;;;;;6.68;5.40;;;;;;;;;;5044629;28;20037;-63
2023/09/04 04:15:20;;;;;;;5.82;4.70;;;;;;;;;;5047662;28;20045;-63
2023/09/04 04:17:46;;;;;;;7.80;5.07;;;;;;;;;;5045741;28;20053;-63
2023/09/04 04:20:15;;;;;;;7.90;5.20;;;;;;;;;;5048075;28;20052;-63
2023/09/04 04:22:42;;;;;;;6.60;4.75;;;;;;;;;;5048144;28;20071;-64
2023/09/04 04:25:10;;;;;;;7.15;5.18;;;;;;;;;;5047967;28;20047;-63
2023/09/04 04:27:39;;;;;;;7.18;5.07;;;;;;;;;;5062911;22;20041;-63
2023/09/04 04:30:06;;;;;;;7.75;5.65;;;;;;;;;;5045689;28;20056;-63
2023/09/04 04:32:33;;;;;;;7.15;5.50;;;;;;;;;;5047645;28;20468;-63
2023/09/04 04:35:00;;;;;;;8.50;5.43;;;;;;;;;;5051183;28;20045;-64
2023/09/04 04:37:26;;;;;;;8.25;5.30;;;;;;;;;;5051739;28;20140;-65
2023/09/04 04:39:53;;;;;;;9.52;5.25;;;;;;;;;;5053643;28;20052;-63
2023/09/04 04:42:20;;;;;;;7.22;5.47;;;;;;;;;;5051231;28;20413;-63
2023/09/04 04:44:48;;;;;;;6.57;5.15;;;;;;;;;;5049421;28;20056;-64
2023/09/04 04:47:14;;;;;;;8.80;5.47;;;;;;;;;;5051405;28;20045;-64
2023/09/04 04:49:41;;;;;;;7.03;5.60;;;;;;;;;;5052894;28;20359;-64
2023/09/04 04:52:07;;;;;;;7.60;5.65;;;;;;;;;;5053811;28;20056;-64
2023/09/04 04:54:34;;;;;;;8.18;6.22;;;;;;;;;;5052626;28;20045;-65
2023/09/04 04:57:00;;;;;;;10.05;5.70;;;;;;;;;;5053216;28;20045;-62
2023/09/04 04:59:27;;;;;;;7.85;5.80;;;;;;;;;;5052451;28;20091;-64
2023/09/04 05:01:56;;;;;;;8.90;6.55;;;;;;;;;;5053165;28;20048;-63
2023/09/04 05:04:22;;;;;;;7.65;5.13;;;;;;;;;;5051211;28;20045;-65
2023/09/04 05:06:50;;;;;;;10.57;5.95;;;;;;;;;;5051570;28;20043;-65
2023/09/04 05:09:16;;;;;;;8.02;6.28;;;;;;;;;;5050911;28;20056;-64
2023/09/04 05:11:43;;;;;;;9.13;5.47;;;;;;;;;;5051280;28;20486;-63
2023/09/04 05:14:10;;;;;;;7.50;5.75;;;;;;;;;;5050870;28;20524;-63
2023/09/04 05:16:36;;;;;;;8.32;5.60;;;;;;;;;;5047186;28;20041;-65
2023/09/04 05:19:04;;;;;;;8.75;6.13;;;;;;;;;;5052732;28;20098;-64
2023/09/04 05:21:31;;;;;;;8.02;5.70;;;;;;;;;;5050841;28;20048;-64
2023/09/04 05:23:58;;;;;;;7.55;6.13;;;;;;;;;;5051254;28;20049;-64
2023/09/04 05:26:24;;;;;;;9.65;6.13;;;;;;;;;;5051140;28;20049;-64
2023/09/04 05:28:51;;;;;;;8.57;6.18;;;;;;;;;;5051379;28;20087;-63
2023/09/04 05:31:18;;;;;;;8.73;6.07;;;;;;;;;;5053154;28;20045;-64
2023/09/04 05:33:45;;;;;;;8.00;6.70;;;;;;;;;;5053322;28;20045;-64
2023/09/04 05:36:13;;;;;;;7.95;5.53;;;;;;;;;;5052674;28;20052;-63
2023/09/04 05:38:40;;;;;;;9.52;6.68;;;;;;;;;;5053850;28;20131;-63
2023/09/04 05:41:06;;;;;;;8.48;6.40;;;;;;;;;;5051358;28;20056;-63
2023/09/04 05:43:33;;;;;;;10.18;6.88;;;;;;;;;;5050347;28;20037;-64
2023/09/04 05:46:00;;;;;;;10.23;5.78;;;;;;;;;;5054536;28;20075;-64
2023/09/04 05:48:26;;;;;;;7.72;5.45;;;;;;;;;;5054527;28;20145;-64
2023/09/04 05:50:53;;;;;;;9.45;6.57;;;;;;;;;;5050544;28;20060;-64
2023/09/04 05:53:23;;;;;;;8.75;6.00;;;;;;;;;;5049983;28;20071;-65
2023/09/04 05:56:04;;;;;;;7.40;5.93;;;;;;;;;;5052269;28;20135;-64
2023/09/04 05:58:30;;;;;;;7.60;5.90;;;;;;;;;;5052437;28;20049;-65
2023/09/04 06:00:57;;;;;;;10.13;6.25;;;;;;;;;;5053417;28;20055;-64
2023/09/04 06:03:24;;;;;;;9.00;6.50;;;;;;;;;;5051858;28;20460;-65
2023/09/04 06:05:51;;;;;;;8.40;6.03;;;;;;;;;;5051923;28;20562;-64
2023/09/04 06:08:18;;;;;;;7.88;6.28;;;;;;;;;;5053041;28;20045;-65
2023/09/04 06:10:46;;;;;;;7.50;5.80;;;;;;;;;;5053416;28;20052;-64
2023/09/04 06:13:12;;;;;;;7.85;5.95;;;;;;;;;;5052001;28;20429;-63
2023/09/04 06:15:39;;;;;;;8.75;6.13;;;;;;;;;;5048658;28;20047;-65
2023/09/04 06:18:06;;;;;;;7.82;6.40;;;;;;;;;;5052327;28;20041;-63
2023/09/04 06:20:33;;;;;;;8.27;6.15;;;;;;;;;;5048726;28;20045;-64
2023/09/04 06:22:59;;;;;;;9.15;6.07;;;;;;;;;;5052957;28;20045;-65
2023/09/04 06:25:26;;;;;;;7.97;5.57;;;;;;;;;;5052881;28;20052;-64
2023/09/04 06:27:54;;;;;;;8.50;6.03;;;;;;;;;;5050503;28;20044;-64
2023/09/04 06:30:21;;;;;;;8.65;6.20;;;;;;;;;;5049319;28;20733;-63
2023/09/04 06:32:47;;;;;;;8.80;5.88;;;;;;;;;;5051420;28;20072;-64
2023/09/04 06:35:14;;;;;;;7.75;5.35;;;;;;;;;;5050175;28;20124;-64
2023/09/04 06:37:41;;;;;;;8.43;6.63;;;;;;;;;;5048723;28;20044;-64
2023/09/04 06:40:09;;;;;;;12.32;6.93;;;;;;;;;;5048893;28;20135;-64
2023/09/04 06:42:35;;;;;;;9.07;6.57;;;;;;;;;;5048528;28;20044;-63
2023/09/04 06:45:04;;;;;;;9.32;5.85;;;;;;;;;;5048871;28;20045;-64
2023/09/04 06:47:38;;;;;;;8.13;5.22;;;;;;;;;;5047538;28;20123;-64
2023/09/04 06:50:15;;;;;;;8.88;6.13;;;;;;;;;;5045608;28;20037;-63
2023/09/04 06:52:42;;;;;;;9.40;5.80;;;;;;;;;;5046125;28;20429;-63
2023/09/04 06:55:09;;;;;;;9.27;5.63;;;;;;;;;;5046689;28;20037;-64
2023/09/04 06:57:36;;;;;;;8.70;5.63;;;;;;;;;;5045359;28;20045;-63
2023/09/04 07:00:08;;;;;;;7.38;5.63;;;;;;;;;;5050253;28;20055;-64
2023/09/04 07:02:36;;;;;;;7.65;5.85;;;;;;;;;;5051115;28;20497;-64
2023/09/04 07:05:02;;;;;;;9.60;6.05;;;;;;;;;;5048848;28;20128;-63
2023/09/04 07:07:29;;;;;;;7.22;5.97;;;;;;;;;;5046036;28;20410;-63
2023/09/04 07:09:56;;;;;;;6.78;5.30;;;;;;;;;;5053745;28;20056;-64
2023/09/04 07:12:22;;;;;;;8.65;5.93;;;;;;;;;;5048928;28;20156;-63
2023/09/04 07:14:49;;;;;;;8.30;6.13;;;;;;;;;;5050796;28;20036;-63
2023/09/04 07:17:17;;;;;;;10.15;6.40;;;;;;;;;;5049888;28;20730;-64
2023/09/04 07:19:44;;;;;;;10.82;5.30;;;;;;;;;;5051709;28;20671;-63
2023/09/04 07:22:11;;;;;;;8.88;6.10;;;;;;;;;;5051551;28;20056;-60
2023/09/04 07:24:37;;;;;;;7.95;5.57;;;;;;;;;;5048492;28;20044;-60
2023/09/04 07:27:04;;;;;;;6.68;5.40;;;;;;;;;;5052174;28;20052;-65
2023/09/04 07:29:31;;;;;;;9.25;5.65;;;;;;;;;;5049316;28;20063;-68
2023/09/04 07:31:59;;;;;;;7.68;5.57;;;;;;;;;;5048506;28;20577;-61
2023/09/04 07:34:27;;;;;;;7.85;5.60;;;;;;;;;;5051366;28;20041;-62
2023/09/04 07:36:53;;;;;;;6.53;4.82;;;;;;;;;;5048469;28;20092;-63
2023/09/04 07:39:20;;;;;;;11.38;5.20;;;;;;;;;;5047475;28;20135;-62
2023/09/04 07:41:47;;;;;;;7.57;4.85;;;;;;;;;;5047122;28;20486;-64
2023/09/04 07:44:14;;;;;;;9.35;5.30;;;;;;;;;;5048543;28;20111;-60
2023/09/04 07:46:40;;;;;;;9.52;6.90;;;;;;;;;;5050529;28;20055;-62
2023/09/04 07:49:07;;;;;;;8.52;6.03;;;;;;;;;;5046833;28;20490;-62
2023/09/04 07:51:35;;;;;;;8.32;5.90;;;;;;;;;;5044462;28;20156;-62
2023/09/04 07:54:02;;;;;;;7.40;5.68;;;;;;;;;;5047736;28;20055;-63
2023/09/04 07:56:29;;;;;;;8.93;5.47;;;;;;;;;;5050049;28;20509;-62
2023/09/04 07:58:55;;;;;;;7.18;4.93;;;;;;;;;;5047697;28;20119;-62
2023/09/04 08:01:22;;;;;;;8.15;5.78;;;;;;;;;;5050189;28;20123;-62
2023/09/04 08:03:48;;;;;;;8.20;5.88;;;;;;;;;;5043940;28;20044;-65
2023/09/04 08:06:15;;;;;;;8.63;5.88;;;;;;;;;;5047997;28;20483;-64
2023/09/04 08:08:43;;;;;;;8.35;5.25;;;;;;;;;;5048203;28;20387;-62
2023/09/04 08:11:10;;;;;;;7.60;5.80;;;;;;;;;;5046798;28;20469;-65
2023/09/04 08:13:36;;;;;;;8.32;5.68;;;;;;;;;;5048952;28;20045;-65
2023/09/04 08:16:03;;;;;;;8.45;5.40;;;;;;;;;;5051495;28;20041;-63
2023/09/04 08:18:30;;;;;;;8.50;5.80;;;;;;;;;;5054114;28;20122;-61
2023/09/04 08:20:56;;;;;;;7.18;5.43;;;;;;;;;;5051968;28;20047;-63
2023/09/04 08:23:23;;;;;;;7.75;5.28;;;;;;;;;;5051519;28;20048;-62
2023/09/04 08:25:57;;;;;;;6.60;5.15;;;;;;;;;;5062559;28;20044;-62
2023/09/04 08:28:24;;;;;;;10.10;5.40;;;;;;;;;;5057641;28;20055;-62
2023/09/04 08:30:51;;;;;;;7.00;5.63;;;;;;;;;;5050628;28;20437;-63
2023/09/04 08:33:17;;;;;;;7.13;5.70;;;;;;;;;;5054047;28;20049;-63
2023/09/04 08:35:44;;;;;;;7.18;4.35;;;;;;;;;;5058920;28;20049;-64
2023/09/04 08:38:11;;;;;;;7.38;4.80;;;;;;;;;;5052693;28;20088;-64
2023/09/04 08:40:41;;;;;;;6.13;4.72;;;;;;;;;;5052635;28;20051;-64
2023/09/04 08:43:10;;;;;;;6.15;4.60;;;;;;;;;;5052742;28;20045;-62
2023/09/04 08:45:37;;;;;;;6.25;4.78;;;;;;;;;;5055985;28;20484;-63
2023/09/04 08:48:07;;;;;;;8.55;4.70;;;;;;;;;;5054479;28;20037;-63
2023/09/04 08:50:34;;;;;;;5.75;4.30;;;;;;;;;;5057609;28;20372;-64
2023/09/04 08:53:01;;;;;;;7.70;4.60;;;;;;;;;;5054012;28;20080;-64
2023/09/04 08:55:28;;;;;;;6.30;4.75;;;;;;;;;;5054970;28;20064;-63
2023/09/04 08:57:55;;;;;;;5.65;3.83;;;;;;;;;;5052787;28;20052;-64
2023/09/04 09:00:23;;;;;;;7.05;4.68;;;;;;;;;;5051647;28;20128;-63
2023/09/04 09:02:50;;;;;;;5.90;4.50;;;;;;;;;;5053188;28;20426;-63
2023/09/04 09:05:18;;;;;;;6.38;4.40;;;;;;;;;;5052055;28;20418;-64
2023/09/04 09:07:46;;;;;;;6.72;4.32;;;;;;;;;;5053645;28;20496;-62
2023/09/04 09:10:17;;;;;;;6.05;3.95;;;;;;;;;;5051755;28;20092;-63
2023/09/04 09:12:44;;;;;;;6.80;4.00;;;;;;;;;;5053235;28;20746;-63
2023/09/04 09:15:11;;;;;;;6.78;4.47;;;;;;;;;;5051220;28;20080;-63
2023/09/04 09:17:53;;;;;;;5.95;4.65;;;;;;;;;;5055857;28;20118;-63
2023/09/04 09:20:35;;;;;;;6.45;4.18;;;;;;;;;;5054747;28;20045;-63
2023/09/04 09:23:01;;;;;;;6.75;4.72;;;;;;;;;;5053965;28;20059;-63
2023/09/04 09:25:28;;;;;;;7.68;4.70;;;;;;;;;;5050947;28;20075;-64
2023/09/04 09:28:00;;;;;;;8.48;5.95;;;;;;;;;;5050794;28;20074;-62
2023/09/04 09:30:30;;;;;;;6.78;4.40;;;;;;;;;;5048849;28;20111;-63
2023/09/04 09:32:59;;;;;;;4.68;3.25;;;;;;;;;;5048293;28;20041;-63
2023/09/04 09:35:25;;;;;;;5.72;4.35;;;;;;;;;;5051129;28;20060;-62
2023/09/04 09:37:54;;;;;;;5.40;3.75;;;;;;;;;;5050359;28;20068;-63
2023/09/04 09:40:21;;;;;;;5.28;3.42;;;;;;;;;;5052644;28;20048;-63
2023/09/04 09:42:48;;;;;;;6.03;3.90;;;;;;;;;;5050234;28;20457;-62
2023/09/04 09:45:15;;;;;;;5.45;3.33;;;;;;;;;;5050012;28;20049;-63
2023/09/04 09:47:41;;;;;;;5.78;3.58;;;;;;;;;;5054785;28;20466;-61
2023/09/04 09:50:10;;;;;;;6.75;4.07;;;;;;;;;;5051051;28;20047;-63
2023/09/04 09:52:37;;;;;;;5.70;3.97;;;;;;;;;;5055207;28;20057;-62
2023/09/04 09:55:04;;;;;;;5.18;3.88;;;;;;;;;;5054457;28;20041;-63
2023/09/04 09:57:32;;;;;;;7.70;3.88;;;;;;;;;;5052607;28;20053;-62
2023/09/04 10:00:00;;;;;;;5.85;4.13;;;;;;;;;;5053619;28;20048;-63
2023/09/04 10:02:27;;;;;;;6.40;4.20;;;;;;;;;;5052905;28;20048;-63
2023/09/04 10:04:54;;;;;;;5.03;3.60;;;;;;;;;;5049754;28;20107;-63
2023/09/04 10:07:28;;;;;;;4.30;3.00;;;;;;;;;;5057048;28;20051;-63
2023/09/04 10:10:03;;;;;;;5.07;3.55;;;;;;;;;;5052934;28;20070;-64
2023/09/04 10:12:34;;;;;;;4.13;2.83;;;;;;;;;;5051764;28;20174;-63
2023/09/04 10:15:02;;;;;;;4.97;3.10;;;;;;;;;;5053972;28;20041;-64
2023/09/04 10:17:36;;;;;;;4.88;3.55;;;;;;;;;;5053157;28;20071;-64
2023/09/04 10:20:05;;;;;;;4.90;3.13;;;;;;;;;;5049645;28;20071;-64
2023/09/04 10:22:36;;;;;;;4.72;3.17;;;;;;;;;;5050486;28;20102;-62
2023/09/04 10:25:08;;;;;;;5.75;3.50;;;;;;;;;;5049231;28;20044;-62
2023/09/04 10:27:44;;;;;;;4.53;3.03;;;;;;;;;;5054637;28;20053;-62
2023/09/04 10:30:17;;;;;;;5.70;3.15;;;;;;;;;;5050707;28;20545;-62
2023/09/04 10:32:45;;;;;;;4.88;3.00;;;;;;;;;;5049904;28;20469;-62
2023/09/04 10:35:12;;;;;;;5.65;3.20;;;;;;;;;;5052432;28;20064;-62
2023/09/04 10:37:41;;;;;;;4.93;3.45;;;;;;;;;;5048954;28;20446;-62
2023/09/04 10:40:10;;;;;;;4.57;3.63;;;;;;;;;;5049300;28;20434;-62
2023/09/04 10:42:41;;;;;;;7.28;3.83;;;;;;;;;;5049328;28;20056;-61
2023/09/04 10:45:14;;;;;;;4.32;3.42;;;;;;;;;;5049448;28;20048;-62
2023/09/04 10:47:46;;;;;;;5.75;3.22;;;;;;;;;;5046036;28;20448;-62
2023/09/04 10:50:30;;;;;;;5.32;3.92;;;;;;;;;;5049181;28;20052;-63
2023/09/04 10:53:00;;;;;;;5.20;3.83;;;;;;;;;;5049873;28;20055;-63
2023/09/04 10:55:27;;;;;;;;;;;;;;;;;;5053894;28;20073;-61
2023/09/04 10:57:59;;;;;;;6.22;3.90;;;;;;;;;;5050888;28;19927;-60
2023/09/04 11:00:28;;;;;;;4.80;3.67;;;;;;;;;;5048860;28;20465;-66
2023/09/04 11:02:54;;;;;;;5.60;3.97;;;;;;;;;;5050379;28;21446;-64
2023/09/04 11:05:21;;;;;;;5.57;4.00;;;;;;;;;;5048490;28;20060;-62
2023/09/04 11:07:47;;;;;;;5.97;4.00;;;;;;;;;;5050998;28;20487;-64
2023/09/04 11:10:36;;;;;;;5.63;3.67;;;;;;;;;;5050195;28;20045;-62
2023/09/04 11:13:03;;;;;;;4.93;3.25;;;;;;;;;;5047306;28;20033;-61
2023/09/04 11:15:33;;;;;;;5.68;3.70;;;;;;;;;;5049072;28;20446;-62
2023/09/04 11:18:00;;;;;;;6.43;3.85;;;;;;;;;;5052680;28;20106;-62
2023/09/04 11:20:27;;;;;;;6.32;3.67;;;;;;;;;;5048826;28;20045;-62
2023/09/04 11:22:55;;;;;;;6.03;3.72;;;;;;;;;;5048772;28;20219;-62
2023/09/04 11:25:22;;;;;;;4.35;3.30;;;;;;;;;;5048339;28;20060;-62
2023/09/04 11:27:50;;;;;;;5.40;3.80;;;;;;;;;;5047599;28;20572;-62
2023/09/04 11:30:17;;;;;;;4.82;3.63;;;;;;;;;;5048512;28;20135;-62
2023/09/04 11:32:43;;;;;;;6.72;3.50;;;;;;;;;;5048661;28;20045;-62
2023/09/04 11:35:14;;;;;;;4.85;3.35;;;;;;;;;;5049751;28;20578;-62
2023/09/04 11:37:41;;;;;;;6.03;3.70;;;;;;;;;;5049405;28;20049;-66
2023/09/04 11:40:09;;;;;;;5.03;3.45;;;;;;;;;;5048406;28;20041;-62
2023/09/04 11:42:36;;;;;;;4.72;3.30;;;;;;;;;;5048509;28;20135;-63
2023/09/04 11:45:05;;;;;;;4.35;3.08;;;;;;;;;;5051977;28;20068;-63
2023/09/04 11:47:32;;;;;;;4.93;3.38;;;;;;;;;;5051160;28;20110;-63
2023/09/04 11:49:59;;;;;;;5.15;3.28;;;;;;;;;;5048710;28;20132;-62
2023/09/04 11:52:28;;;;;;;5.18;3.40;;;;;;;;;;5048575;28;20482;-62
2023/09/04 11:54:55;;;;;;;4.50;3.40;;;;;;;;;;5048784;28;20127;-62
2023/09/04 11:57:21;;;;;;;5.38;3.35;;;;;;;;;;5044301;28;20087;-63
2023/09/04 11:59:48;;;;;;;5.65;3.53;;;;;;;;;;5048901;28;20044;-62
2023/09/04 12:02:16;;;;;;;4.97;3.05;;;;;;;;;;5055951;28;20076;-62
2023/09/04 12:04:45;;;;;;;4.47;3.72;;;;;;;;;;5046258;28;20056;-62
2023/09/04 12:07:13;;;;;;;6.57;4.22;;;;;;;;;;5048488;28;20353;-62
2023/09/04 12:09:41;;;;;;;5.25;3.78;;;;;;;;;;5048244;28;20102;-62
2023/09/04 12:12:08;;;;;;;5.43;3.65;;;;;;;;;;5050970;28;20045;-62
2023/09/04 12:14:35;;;;;;;4.97;3.83;;;;;;;;;;5051995;28;20045;-62
2023/09/04 12:17:03;;;;;;;5.00;3.47;;;;;;;;;;5051222;28;20496;-62
2023/09/04 12:19:32;;;;;;;5.90;3.80;;;;;;;;;;5052137;28;20075;-62
2023/09/04 12:22:11;;;;;;;8.07;5.93;;;;;;;;;;5055366;28;20053;-62
2023/09/04 12:24:37;;;;;;;6.22;4.20;;;;;;;;;;5049424;28;20529;-64
2023/09/04 12:27:04;;;;;;;5.22;3.78;;;;;;;;;;5048092;28;20041;-61
2023/09/04 12:29:31;;;;;;;5.88;3.85;;;;;;;;;;5046106;28;20056;-62
2023/09/04 12:31:59;;;;;;;5.40;3.60;;;;;;;;;;5051153;28;20052;-62
2023/09/04 12:34:26;;;;;;;5.70;3.40;;;;;;;;;;5049692;28;20048;-62
2023/09/04 12:36:56;;;;;;;6.97;4.40;;;;;;;;;;5056585;28;20383;-61
2023/09/04 12:39:23;;;;;;;5.85;3.90;;;;;;;;;;5048291;28;20520;-61
2023/09/04 12:41:54;;;;;;;5.72;4.18;;;;;;;;;;5050249;28;20055;-62
2023/09/04 12:44:21;;;;;;;6.18;4.28;;;;;;;;;;5049316;28;20052;-63
2023/09/04 12:46:47;;;;;;;5.15;4.13;;;;;;;;;;5049965;28;20049;-62
2023/09/04 12:49:14;;;;;;;6.13;4.10;;;;;;;;;;5049254;28;20064;-61
2023/09/04 12:51:41;;;;;;;5.85;4.40;;;;;;;;;;5049996;28;20041;-63
2023/09/04 12:54:08;;;;;;;7.03;4.63;;;;;;;;;;5050756;28;20276;-63
2023/09/04 12:56:35;;;;;;;5.65;4.38;;;;;;;;;;5055088;28;20255;-62
2023/09/04 12:59:02;;;;;;;6.40;4.35;;;;;;;;;;5052177;28;20579;-62
2023/09/04 13:01:29;;;;;;;6.18;4.45;;;;;;;;;;5048332;28;20060;-60
2023/09/04 13:03:55;;;;;;;6.47;3.97;;;;;;;;;;5056769;28;20064;-63
2023/09/04 13:06:22;;;;;;;5.72;4.63;;;;;;;;;;5051198;28;20040;-62
2023/09/04 13:08:49;;;;;;;6.00;4.25;;;;;;;;;;5056902;28;20041;-61
2023/09/04 13:11:17;;;;;;;5.22;4.05;;;;;;;;;;5052986;28;20053;-63
2023/09/04 13:13:43;;;;;;;4.90;3.80;;;;;;;;;;5048242;28;20348;-63
2023/09/04 13:16:10;;;;;;;5.13;3.92;;;;;;;;;;5052730;28;20040;-62
2023/09/04 13:18:37;;;;;;;5.18;4.10;;;;;;;;;;5052504;28;20040;-62
2023/09/04 13:21:03;;;;;;;6.40;4.18;;;;;;;;;;5051883;28;20047;-62
2023/09/04 13:23:30;;;;;;;5.72;3.90;;;;;;;;;;5053911;28;20514;-62
2023/09/04 13:25:56;;;;;;;6.60;3.63;;;;;;;;;;5051575;28;20569;-63
2023/09/04 13:28:24;;;;;;;6.63;4.45;;;;;;;;;;5054097;28;20081;-63
2023/09/04 13:30:51;;;;;;;5.43;4.50;;;;;;;;;;5053171;28;20045;-62
2023/09/04 13:33:18;;;;;;;7.65;4.35;;;;;;;;;;5055467;28;20098;-62
2023/09/04 13:35:44;;;;;;;6.22;4.30;;;;;;;;;;5052637;28;20549;-62
2023/09/04 13:38:11;;;;;;;5.75;4.13;;;;;;;;;;5052502;28;20052;-62
2023/09/04 13:40:37;;;;;;;7.22;4.20;;;;;;;;;;5056134;28;20684;-60
2023/09/04 13:43:05;;;;;;;6.32;4.43;;;;;;;;;;5052677;28;20069;-62
2023/09/04 13:45:33;;;;;;;6.78;5.05;;;;;;;;;;5057724;28;20048;-62
2023/09/04 13:47:59;;;;;;;6.57;4.25;;;;;;;;;;5055250;28;20127;-63
2023/09/04 13:50:26;;;;;;;6.18;4.82;;;;;;;;;;5050429;28;20049;-63
2023/09/04 13:52:53;;;;;;;6.18;3.90;;;;;;;;;;5049819;28;20076;-62
2023/09/04 13:55:20;;;;;;;6.05;4.15;;;;;;;;;;5054803;28;20082;-62
2023/09/04 13:57:46;;;;;;;6.75;3.90;;;;;;;;;;5058864;28;20052;-62
2023/09/04 14:00:15;;;;;;;5.47;4.32;;;;;;;;;;5050406;28;20585;-62
2023/09/04 14:02:43;;;;;;;5.63;3.67;;;;;;;;;;5049878;28;20045;-61
2023/09/04 14:05:11;;;;;;;6.75;4.22;;;;;;;;;;5049670;28;20124;-62
2023/09/04 14:07:37;;;;;;;4.38;2.97;;;;;;;;;;5048774;28;20108;-62
2023/09/04 14:10:05;;;;;;;7.00;3.97;;;;;;;;;;5050177;28;20051;-63
2023/09/04 14:12:32;;;;;;;5.22;3.70;;;;;;;;;;5049671;28;20171;-63
2023/09/04 14:14:58;;;;;;;5.38;3.53;;;;;;;;;;5050288;28;20421;-63
2023/09/04 14:17:25;;;;;;;4.70;3.30;;;;;;;;;;5049749;28;20057;-63
2023/09/04 14:19:53;;;;;;;5.28;3.60;;;;;;;;;;5049997;28;20505;-63
2023/09/04 14:22:20;;;;;;;5.03;3.78;;;;;;;;;;5050775;28;20048;-62
2023/09/04 14:24:46;;;;;;;5.22;3.38;;;;;;;;;;5053757;28;20067;-62
2023/09/04 14:27:13;;;;;;;5.22;4.10;;;;;;;;;;5052229;28;20053;-63
2023/09/04 14:29:40;;;;;;;6.50;3.88;;;;;;;;;;5056356;28;20041;-63
2023/09/04 14:32:07;;;;;;;7.75;4.40;;;;;;;;;;5059251;28;20041;-63
2023/09/04 14:34:33;;;;;;;5.68;3.85;;;;;;;;;;5051510;28;20411;-62
2023/09/04 14:37:01;;;;;;;6.13;4.15;;;;;;;;;;5052448;28;20044;-62
2023/09/04 14:39:28;;;;;;;5.97;4.07;;;;;;;;;;5053368;28;20049;-63
2023/09/04 14:41:55;;;;;;;5.75;3.75;;;;;;;;;;5055298;28;20037;-62
2023/09/04 14:44:21;;;;;;;5.78;3.85;;;;;;;;;;5048812;28;20053;-63
2023/09/04 14:46:48;;;;;;;5.47;3.58;;;;;;;;;;5052993;28;20494;-62